createdAt,value
2023-02-11T00:01:31.889Z,-6.14
2023-02-11T00:04:34.870Z,-6.07
2023-02-11T00:07:37.844Z,-6.02
2023-02-11T00:10:40.246Z,-6.29
2023-02-11T00:13:44.587Z,-6.24
2023-02-11T00:16:47.103Z,-6.04
2023-02-11T00:19:53.321Z,-6.01
2023-02-11T00:22:55.995Z,-5.98
2023-02-11T00:25:58.842Z,-6.06
2023-02-11T00:29:02.109Z,-6.13
2023-02-11T00:32:09.231Z,-6.12
2023-02-11T00:35:11.799Z,-6.24
2023-02-11T00:38:15.513Z,-6.41
2023-02-11T00:41:19.296Z,-6.45
2023-02-11T00:44:22.524Z,-6.44
2023-02-11T00:47:25.030Z,-6.26
2023-02-11T00:50:28.563Z,-6.16
2023-02-11T00:53:32.320Z,-6.20
2023-02-11T00:56:35.428Z,-6.21
2023-02-11T00:59:38.210Z,-6.22
2023-02-11T01:02:41.731Z,-6.23
2023-02-11T01:05:46.022Z,-6.38
2023-02-11T01:08:49.116Z,-6.44
2023-02-11T01:11:51.562Z,-6.47
2023-02-11T01:14:54.400Z,-6.55
2023-02-11T01:17:56.938Z,-6.58
2023-02-11T01:21:00.450Z,-6.60
2023-02-11T01:24:03.182Z,-6.67
2023-02-11T01:27:05.954Z,-6.57
2023-02-11T01:30:10.426Z,-6.53
2023-02-11T01:33:13.256Z,-6.67
2023-02-11T01:36:16.021Z,-6.71
2023-02-11T01:39:19.088Z,-6.76
2023-02-11T01:42:23.716Z,-6.78
2023-02-11T01:45:46.223Z,-6.80
2023-02-11T01:48:53.368Z,-6.87
2023-02-11T01:52:02.266Z,-6.79
2023-02-11T01:55:27.864Z,-6.76
2023-02-11T01:58:36.161Z,-6.73
2023-02-11T02:01:41.616Z,-6.76
2023-02-11T02:04:59.147Z,-6.78
2023-02-11T02:08:23.112Z,-6.92
2023-02-11T02:11:26.480Z,-6.88
2023-02-11T02:14:29.058Z,-6.92
2023-02-11T02:17:43.588Z,-6.99
2023-02-11T02:20:52.011Z,-7.20
2023-02-11T02:24:14.304Z,-7.20
2023-02-11T02:27:48.723Z,-7.18
2023-02-11T02:30:57.305Z,-7.30
2023-02-11T02:34:02.084Z,-7.18
2023-02-11T02:37:13.411Z,-7.18
2023-02-11T02:40:23.459Z,-7.17
2023-02-11T02:43:28.133Z,-7.10
2023-02-11T02:46:32.986Z,-7.27
2023-02-11T02:49:36.315Z,-7.22
2023-02-11T02:52:53.677Z,-7.19
2023-02-11T02:56:07.787Z,-7.24
2023-02-11T02:59:29.700Z,-7.07
2023-02-11T03:03:04.626Z,-7.10
2023-02-11T03:06:44.228Z,-7.12
2023-02-11T03:10:03.226Z,-7.13
2023-02-11T03:13:07.356Z,-7.10
2023-02-11T03:16:22.520Z,-7.11
2023-02-11T03:19:31.225Z,-7.14
2023-02-11T03:22:41.346Z,-7.23
2023-02-11T03:26:23.321Z,-7.51
2023-02-11T03:29:51.893Z,-7.72
2023-02-11T03:33:06.926Z,-7.63
2023-02-11T03:36:15.782Z,-7.52
2023-02-11T03:39:24.459Z,-7.52
2023-02-11T03:42:32.858Z,-7.65
2023-02-11T03:45:37.995Z,-7.92
2023-02-11T03:48:54.449Z,-7.58
2023-02-11T03:51:58.107Z,-7.53
2023-02-11T03:55:04.215Z,-7.43
2023-02-11T03:58:07.462Z,-7.49
2023-02-11T04:01:10.980Z,-7.56
2023-02-11T04:04:13.715Z,-7.62
2023-02-11T04:07:16.406Z,-7.70
2023-02-11T04:10:19.279Z,-7.73
2023-02-11T04:13:22.661Z,-7.71
2023-02-11T04:16:25.363Z,-7.68
2023-02-11T04:19:28.298Z,-7.72
2023-02-11T04:22:31.017Z,-7.81
2023-02-11T04:25:33.925Z,-7.88
2023-02-11T04:28:36.621Z,-7.73
2023-02-11T04:31:39.464Z,-7.62
2023-02-11T04:34:42.153Z,-7.65
2023-02-11T04:37:44.870Z,-7.72
2023-02-11T04:40:47.558Z,-7.61
2023-02-11T04:43:50.363Z,-7.66
2023-02-11T04:46:53.116Z,-7.65
2023-02-11T04:49:56.271Z,-7.76
2023-02-11T04:52:58.763Z,-7.95
2023-02-11T04:56:02.025Z,-8.17
2023-02-11T04:59:05.350Z,-8.24
2023-02-11T05:02:08.650Z,-8.24
2023-02-11T05:05:11.354Z,-8.08
2023-02-11T05:08:13.892Z,-8.10
2023-02-11T05:11:19.349Z,-7.87
2023-02-11T05:14:21.922Z,-7.72
2023-02-11T05:17:24.604Z,-7.74
2023-02-11T05:20:27.658Z,-7.71
2023-02-11T05:23:30.174Z,-7.79
2023-02-11T05:26:33.255Z,-7.80
2023-02-11T05:29:35.993Z,-7.82
2023-02-11T05:32:39.151Z,-7.76
2023-02-11T05:35:45.039Z,-7.87
2023-02-11T05:38:48.134Z,-7.78
2023-02-11T05:41:50.865Z,-7.75
2023-02-11T05:44:53.573Z,-7.72
2023-02-11T05:47:57.111Z,-7.80
2023-02-11T05:51:00.047Z,-7.81
2023-02-11T05:54:02.494Z,-7.81
2023-02-11T05:57:05.364Z,-7.97
2023-02-11T06:00:09.362Z,-7.90
2023-02-11T06:03:18.371Z,-7.85
2023-02-11T06:06:21.298Z,-7.81
2023-02-11T06:09:24.041Z,-7.88
2023-02-11T06:12:27.222Z,-7.99
2023-02-11T06:15:29.922Z,-7.63
2023-02-11T06:18:33.672Z,-7.44
2023-02-11T06:21:43.797Z,-7.27
2023-02-11T06:25:00.708Z,-7.02
2023-02-11T06:28:04.994Z,-6.87
2023-02-11T06:31:08.286Z,-6.71
2023-02-11T06:34:11.342Z,-6.58
2023-02-11T06:37:14.146Z,-6.28
2023-02-11T06:40:16.889Z,-6.06
2023-02-11T06:43:20.086Z,-5.83
2023-02-11T06:46:23.253Z,-6.01
2023-02-11T06:49:25.998Z,-5.96
2023-02-11T06:52:29.038Z,-5.97
2023-02-11T06:55:31.527Z,-6.31
2023-02-11T06:58:34.550Z,-5.89
2023-02-11T07:01:37.303Z,-5.71
2023-02-11T07:04:40.195Z,-5.51
2023-02-11T07:07:42.791Z,-5.40
2023-02-11T07:10:45.446Z,-5.20
2023-02-11T07:13:48.322Z,-5.21
2023-02-11T07:16:50.914Z,-5.18
2023-02-11T07:19:53.756Z,-5.30
2023-02-11T07:22:56.490Z,-5.10
2023-02-11T07:26:06.934Z,-5.02
2023-02-11T07:29:09.874Z,-5.09
2023-02-11T07:32:13.200Z,-5.17
2023-02-11T07:35:16.135Z,-5.03
2023-02-11T07:38:18.954Z,-5.22
2023-02-11T07:41:24.098Z,-5.10
2023-02-11T07:44:26.816Z,-5.05
2023-02-11T07:47:29.446Z,-4.96
2023-02-11T07:50:32.053Z,-5.10
2023-02-11T07:53:34.814Z,-4.81
2023-02-11T07:56:37.242Z,-4.74
2023-02-11T07:59:40.197Z,-4.56
2023-02-11T08:02:42.864Z,-4.67
2023-02-11T08:05:45.938Z,-4.48
2023-02-11T08:08:49.207Z,-4.46
2023-02-11T08:11:51.972Z,-4.23
2023-02-11T08:14:55.270Z,-4.12
2023-02-11T08:17:57.866Z,-4.13
2023-02-11T08:21:05.885Z,-4.22
2023-02-11T08:24:09.107Z,-4.23
2023-02-11T08:27:11.565Z,-4.28
2023-02-11T08:30:14.563Z,-4.20
2023-02-11T08:33:16.954Z,-4.24
2023-02-11T08:36:22.500Z,-4.23
2023-02-11T08:39:25.255Z,-3.98
2023-02-11T08:42:27.951Z,-4.06
2023-02-11T08:45:30.743Z,-3.66
2023-02-11T08:48:33.722Z,-3.22
2023-02-11T08:51:36.320Z,-2.85
2023-02-11T08:54:39.331Z,-2.49
2023-02-11T08:57:41.739Z,-1.63
2023-02-11T09:00:45.546Z,-1.23
2023-02-11T09:03:48.479Z,-0.47
2023-02-11T09:06:51.466Z,-1.28
2023-02-11T09:09:53.997Z,-1.89
2023-02-11T09:12:57.043Z,-2.04
2023-02-11T09:16:01.745Z,-1.92
2023-02-11T09:19:05.285Z,-2.10
2023-02-11T09:22:08.212Z,-2.36
2023-02-11T09:25:11.634Z,-2.39
2023-02-11T09:28:14.088Z,-2.50
2023-02-11T09:31:19.498Z,-2.35
2023-02-11T09:34:22.017Z,-2.42
2023-02-11T09:37:24.736Z,-2.37
2023-02-11T09:40:27.678Z,-2.19
2023-02-11T09:44:03.285Z,-2.02
2023-02-11T09:47:34.836Z,-1.57
2023-02-11T09:50:42.910Z,-1.30
2023-02-11T09:53:45.829Z,-0.89
2023-02-11T09:56:48.517Z,-0.59
2023-02-11T09:59:51.084Z,0.08
2023-02-11T10:03:18.387Z,0.19
2023-02-11T10:06:32.894Z,0.58
2023-02-11T10:09:45.559Z,0.74
2023-02-11T10:13:18.634Z,0.60
2023-02-11T10:16:43.524Z,0.28
2023-02-11T10:20:14.622Z,-0.25
2023-02-11T10:23:22.635Z,-0.55
2023-02-11T10:26:30.942Z,-0.39
2023-02-11T10:29:49.914Z,-0.65
2023-02-11T10:32:59.745Z,-1.02
2023-02-11T10:36:04.349Z,-0.58
2023-02-11T10:39:17.759Z,-0.05
2023-02-11T10:42:20.491Z,-0.93
2023-02-11T10:45:33.318Z,-0.38
2023-02-11T10:48:37.562Z,-0.48
2023-02-11T10:51:40.233Z,-0.36
2023-02-11T10:54:55.354Z,-0.65
2023-02-11T10:58:02.834Z,0.06
2023-02-11T11:01:19.026Z,0.33
2023-02-11T11:04:44.052Z,1.58
2023-02-11T11:08:02.495Z,2.88
2023-02-11T11:11:09.032Z,1.48
2023-02-11T11:14:20.765Z,1.84
2023-02-11T11:17:23.551Z,2.04
2023-02-11T11:20:29.379Z,1.35
2023-02-11T11:23:32.484Z,1.43
2023-02-11T11:26:49.089Z,1.93
2023-02-11T11:29:55.386Z,1.88
2023-02-11T11:32:59.475Z,2.61
2023-02-11T11:36:09.556Z,2.89
2023-02-11T11:39:26.738Z,2.06
2023-02-11T11:42:34.825Z,2.17
2023-02-11T11:45:37.746Z,2.37
2023-02-11T11:48:47.589Z,2.33
2023-02-11T11:52:19.444Z,2.49
2023-02-11T11:55:27.185Z,2.29
2023-02-11T11:58:32.366Z,2.53
2023-02-11T12:01:54.083Z,1.29
2023-02-11T12:05:14.928Z,1.30
2023-02-11T12:08:31.463Z,2.46
2023-02-11T12:12:03.020Z,3.15
2023-02-11T12:15:31.401Z,3.40
2023-02-11T12:19:12.274Z,3.55
2023-02-11T12:22:41.950Z,3.58
2023-02-11T12:26:16.062Z,2.90
2023-02-11T12:29:36.783Z,2.92
2023-02-11T12:32:45.053Z,3.58
2023-02-11T12:36:05.981Z,3.78
2023-02-11T12:39:12.082Z,4.10
2023-02-11T12:42:57.590Z,4.41
2023-02-11T12:46:33.601Z,4.26
2023-02-11T12:50:18.182Z,4.97
2023-02-11T12:53:29.205Z,5.98
2023-02-11T12:56:39.710Z,6.06
2023-02-11T12:59:57.207Z,5.96
2023-02-11T13:03:07.215Z,5.83
2023-02-11T13:06:16.517Z,6.08
2023-02-11T13:09:32.367Z,5.95
2023-02-11T13:12:55.634Z,6.07
2023-02-11T13:16:19.962Z,5.55
2023-02-11T13:19:41.331Z,5.54
2023-02-11T13:22:51.906Z,5.76
2023-02-11T13:26:24.086Z,6.20
2023-02-11T13:29:36.419Z,6.58
2023-02-11T13:33:16.550Z,6.12
2023-02-11T13:36:22.023Z,5.07
2023-02-11T13:39:25.090Z,6.00
2023-02-11T13:42:29.838Z,5.61
2023-02-11T13:45:50.039Z,5.53
2023-02-11T13:48:54.101Z,5.84
2023-02-11T13:51:58.101Z,5.93
2023-02-11T13:55:19.930Z,6.03
2023-02-11T13:58:29.598Z,5.24
2023-02-11T14:02:07.818Z,5.07
2023-02-11T14:05:39.167Z,4.73
2023-02-11T14:09:01.631Z,4.56
2023-02-11T14:12:31.259Z,4.45
2023-02-11T14:15:41.194Z,4.36
2023-02-11T14:18:55.937Z,4.39
2023-02-11T14:22:13.532Z,4.37
2023-02-11T14:25:27.220Z,4.29
2023-02-11T14:28:34.487Z,4.36
2023-02-11T14:32:05.724Z,4.46
2023-02-11T14:35:47.469Z,4.51
2023-02-11T14:39:29.919Z,4.50
2023-02-11T14:42:34.609Z,4.57
2023-02-11T14:45:38.698Z,4.64
2023-02-11T14:48:46.949Z,4.41
2023-02-11T14:51:49.903Z,4.38
2023-02-11T14:55:17.791Z,4.25
2023-02-11T14:58:27.204Z,4.11
2023-02-11T15:01:36.041Z,4.13
2023-02-11T15:04:40.794Z,3.96
2023-02-11T15:07:49.654Z,3.86
2023-02-11T15:10:55.259Z,3.71
2023-02-11T15:14:01.894Z,3.49
